Time;durP1;ratioP1;P1;durP2;ratioP2;P2;SDS_P1;SDS_P2;PMS_P1;PMS_P2;Temp;Humidity;BMP_temperature;BMP_pressure;BME280_temperature;BME280_humidity;BME280_pressure;Samples;Min_cycle;Max_cycle;Signal;HPM_P1;HPM_P2
2023/10/19 00:02:06;;;;;;;12.65;9.35;;;;;;;12.01;100.00;99176.91;5096000;28;20032;-61
2023/10/19 00:04:34;;;;;;;12.95;9.27;;;;;;;12.02;100.00;99178.63;5095576;28;20044;-61
2023/10/19 00:07:00;;;;;;;11.98;9.80;;;;;;;12.03;100.00;99182.16;5096026;28;20477;-61
2023/10/19 00:09:31;;;;;;;15.32;9.65;;;;;;;12.02;100.00;99180.41;5096146;28;20050;-61
2023/10/19 00:11:57;;;;;;;14.93;9.27;;;;;;;12.03;100.00;99184.81;5095892;28;20127;-61
2023/10/19 00:14:25;;;;;;;14.38;9.60;;;;;;;12.04;100.00;99189.22;5095774;28;20024;-62
2023/10/19 00:16:56;;;;;;;12.60;9.00;;;;;;;12.08;100.00;99192.69;5095784;28;20035;-61
2023/10/19 00:19:22;;;;;;;13.73;10.23;;;;;;;12.07;100.00;99194.44;5095739;28;20383;-61
2023/10/19 00:21:50;;;;;;;12.88;9.13;;;;;;;12.09;100.00;99211.16;5094337;28;20023;-61
2023/10/19 00:24:19;;;;;;;15.65;10.45;;;;;;;12.07;100.00;99182.97;5094550;28;20024;-61
2023/10/19 00:26:45;;;;;;;14.10;9.55;;;;;;;12.11;100.00;99188.16;5095493;28;20021;-61
2023/10/19 00:31:56;;;;;;;13.07;10.02;;;;;;;12.14;100.00;99190.75;5095912;28;20051;-61
2023/10/19 00:34:21;;;;;;;13.63;9.10;;;;;;;12.15;100.00;99179.25;5095470;28;20240;-61
2023/10/19 00:36:48;;;;;;;12.40;9.88;;;;;;;12.15;100.00;99178.38;5094542;28;20134;-61
2023/10/19 00:39:20;;;;;;;16.73;9.57;;;;;;;12.18;100.00;99173.03;5095488;28;20020;-61
2023/10/19 00:41:47;;;;;;;12.77;9.55;;;;;;;12.18;100.00;99184.47;5094419;28;20032;-61
2023/10/19 00:44:22;;;;;;;12.70;8.60;;;;;;;12.18;100.00;99173.88;5095439;28;20035;-62
2023/10/19 00:47:00;;;;;;;16.13;9.40;;;;;;;12.21;100.00;99176.47;5095828;28;20043;-61
2023/10/19 00:49:26;;;;;;;13.50;9.30;;;;;;;12.21;100.00;99173.81;5094926;28;20121;-61
2023/10/19 00:52:02;;;;;;;14.23;9.25;;;;;;;12.22;100.00;99175.56;5094023;28;20067;-61
2023/10/19 00:55:08;;;;;;;14.75;9.32;;;;;;;12.23;100.00;99168.47;5095118;28;20615;-61
2023/10/19 00:57:34;;;;;;;12.70;8.98;;;;;;;12.25;100.00;99164.91;5092622;28;20033;-61
2023/10/19 01:00:11;;;;;;;14.43;9.07;;;;;;;12.30;100.00;99175.38;5095727;28;20024;-61
2023/10/19 01:02:44;;;;;;;13.82;9.52;;;;;;;12.34;100.00;99173.53;5095582;28;20043;-61
2023/10/19 01:05:13;;;;;;;15.07;9.18;;;;;;;12.38;100.00;99164.63;5094576;28;20055;-61
2023/10/19 01:07:39;;;;;;;14.55;9.38;;;;;;;12.41;100.00;99169.81;5093610;28;20028;-61
2023/10/19 01:10:11;;;;;;;12.45;9.68;;;;;;;12.46;100.00;99162.63;5094706;28;20020;-61
2023/10/19 01:12:40;;;;;;;12.30;9.07;;;;;;;12.53;100.00;99174.84;5095092;28;20036;-61
2023/10/19 01:15:37;;;;;;;12.45;8.93;;;;;;;12.61;100.00;99172.00;5094748;28;20020;-61
2023/10/19 01:18:02;;;;;;;13.18;8.55;;;;;;;12.68;100.00;99170.97;5094700;28;20508;-61
2023/10/19 01:25:41;;;;;;;11.73;8.25;;;;;;;12.85;100.00;99168.75;5094760;28;20051;-62
2023/10/19 01:28:09;;;;;;;11.98;8.73;;;;;;;12.90;100.00;99172.16;5094254;28;20031;-61
2023/10/19 01:30:36;;;;;;;12.77;7.93;;;;;;;12.94;100.00;99171.16;5094624;28;20024;-61
2023/10/19 01:33:03;;;;;;;12.55;8.18;;;;;;;13.00;100.00;99168.34;5094597;28;20031;-61
2023/10/19 01:36:10;;;;;;;12.90;8.15;;;;;;;13.03;100.00;99157.66;5094289;28;20028;-61
2023/10/19 01:38:15;;;;;;;10.57;7.78;;;;;;;13.05;100.00;99162.91;5094214;28;20040;-61
2023/10/19 01:40:46;;;;;;;14.50;7.85;;;;;;;13.07;100.00;99161.13;5094287;28;20081;-61
2023/10/19 01:43:20;;;;;;;11.68;8.13;;;;;;;13.10;100.00;99160.16;5094265;28;20059;-61
2023/10/19 01:45:46;;;;;;;11.27;7.18;;;;;;;13.14;100.00;99159.16;5094435;28;20385;-61
2023/10/19 01:48:12;;;;;;;10.63;7.50;;;;;;;13.15;100.00;99158.28;5094369;28;20048;-61
2023/10/19 01:50:39;;;;;;;9.23;6.60;;;;;;;13.19;100.00;99159.91;5094030;28;20103;-61
2023/10/19 01:53:12;;;;;;;13.70;6.90;;;;;;;13.20;100.00;99157.22;5094257;28;20059;-61
2023/10/19 01:55:38;;;;;;;12.02;6.90;;;;;;;13.30;100.00;99157.00;5093827;28;20466;-61
2023/10/19 01:58:03;;;;;;;11.43;6.38;;;;;;;13.32;100.00;99148.09;5093821;28;20035;-61
2023/10/19 02:00:29;;;;;;;8.73;6.00;;;;;;;13.38;100.00;99153.22;5093312;28;20031;-61
2023/10/19 02:02:55;;;;;;;9.98;5.88;;;;;;;13.43;100.00;99158.41;5092431;28;20474;-61
2023/10/19 02:05:22;;;;;;;9.50;5.60;;;;;;;13.46;100.00;99159.19;5092219;28;20052;-61
2023/10/19 02:07:47;;;;;;;10.40;5.35;;;;;;;13.53;100.00;99159.88;5092656;28;20039;-61
2023/10/19 02:10:12;;;;;;;9.40;5.47;;;;;;;13.58;100.00;99157.97;5093907;28;20059;-61
2023/10/19 02:12:41;;;;;;;10.90;5.20;;;;;;;13.61;100.00;99157.00;5093808;28;20424;-61
2023/10/19 02:15:08;;;;;;;7.57;4.70;;;;;;;13.62;100.00;99156.97;5093584;28;20470;-61
2023/10/19 02:17:33;;;;;;;8.60;5.18;;;;;;;13.66;100.00;99150.66;5092547;28;20116;-62
2023/10/19 02:19:59;;;;;;;7.63;4.45;;;;;;;13.69;100.00;99153.22;5093509;28;20455;-61
2023/10/19 02:22:24;;;;;;;7.65;4.45;;;;;;;13.72;100.00;99150.47;5094228;28;20036;-62
2023/10/19 02:24:50;;;;;;;6.05;3.42;;;;;;;13.82;100.00;99144.88;5094039;28;20020;-62
2023/10/19 02:27:15;;;;;;;11.57;3.42;;;;;;;13.87;100.00;99142.97;5093896;28;20355;-61
2023/10/19 02:29:42;;;;;;;6.97;3.28;;;;;;;13.94;100.00;99139.22;5093235;28;20103;-62
2023/10/19 02:32:07;;;;;;;7.22;2.85;;;;;;;13.97;100.00;99132.03;5093296;28;20031;-62
2023/10/19 02:34:34;;;;;;;5.57;2.67;;;;;;;14.03;100.00;99139.78;5093442;28;20028;-62
2023/10/19 02:37:00;;;;;;;7.32;3.22;;;;;;;14.08;100.00;99136.13;5093115;28;20036;-62
2023/10/19 02:39:28;;;;;;;8.13;2.55;;;;;;;14.14;100.00;99146.59;5093400;28;20052;-63
2023/10/19 02:42:01;;;;;;;4.63;2.58;;;;;;;14.13;100.00;99135.09;5093025;28;20020;-63
2023/10/19 02:44:26;;;;;;;9.20;2.80;;;;;;;14.18;100.00;99138.47;5093411;28;20032;-61
2023/10/19 02:46:58;;;;;;;3.55;2.22;;;;;;;14.21;100.00;99138.34;5093050;28;20034;-62
2023/10/19 02:49:25;;;;;;;5.90;2.30;;;;;;;14.21;100.00;99137.47;5091831;28;20039;-61
2023/10/19 02:51:52;;;;;;;3.95;2.22;;;;;;;14.26;100.00;99136.44;5092862;28;20032;-61
2023/10/19 02:54:22;;;;;;;3.38;2.20;;;;;;;14.31;100.00;99143.41;5092741;28;20073;-61
2023/10/19 02:56:51;;;;;;;5.45;2.10;;;;;;;14.35;100.00;99142.38;5092834;28;20038;-61
2023/10/19 02:59:22;;;;;;;7.60;2.20;;;;;;;14.37;100.00;99141.41;5092884;28;20024;-61
2023/10/19 03:01:47;;;;;;;6.78;2.20;;;;;;;14.38;100.00;99137.81;5092824;28;20043;-61
2023/10/19 03:04:13;;;;;;;4.72;2.30;;;;;;;14.40;100.00;99140.44;5092497;28;20127;-62
2023/10/19 03:06:40;;;;;;;6.68;2.10;;;;;;;14.42;100.00;99146.56;5092764;28;20036;-62
2023/10/19 03:09:13;;;;;;;6.45;2.20;;;;;;;14.43;100.00;99137.66;5093142;28;20382;-61
2023/10/19 03:11:44;;;;;;;8.27;2.20;;;;;;;14.42;100.00;99141.25;5092637;28;20036;-62
2023/10/19 03:14:13;;;;;;;5.55;2.50;;;;;;;14.38;100.00;99135.16;5092946;28;20031;-61
2023/10/19 03:16:42;;;;;;;13.30;2.50;;;;;;;14.38;100.00;99129.84;5092665;28;20036;-61
2023/10/19 03:19:07;;;;;;;4.63;2.00;;;;;;;14.40;100.00;99136.00;5093024;28;20020;-61
2023/10/19 03:21:41;;;;;;;6.68;2.00;;;;;;;14.40;100.00;99133.34;5092604;28;20524;-61
2023/10/19 03:24:12;;;;;;;5.75;2.05;;;;;;;14.39;100.00;99128.06;5092958;28;20119;-61
2023/10/19 03:26:43;;;;;;;5.95;2.20;;;;;;;14.37;100.00;99128.13;5092516;28;20039;-62
2023/10/19 03:29:12;;;;;;;5.63;2.58;;;;;;;14.38;100.00;99124.53;5092602;28;20089;-61
2023/10/19 03:31:43;;;;;;;4.53;2.03;;;;;;;14.35;100.00;99111.38;5092467;28;20131;-62
2023/10/19 03:34:18;;;;;;;3.65;2.00;;;;;;;14.37;100.00;99125.47;5092641;28;20060;-61
2023/10/19 03:36:44;;;;;;;4.82;2.10;;;;;;;14.35;100.00;99119.34;5092491;28;20146;-62
2023/10/19 03:39:14;;;;;;;6.88;2.28;;;;;;;14.34;100.00;99112.25;5092792;28;20113;-61
2023/10/19 03:41:44;;;;;;;5.38;2.10;;;;;;;14.35;100.00;99115.81;5092322;28;20165;-62
2023/10/19 03:46:55;;;;;;;5.07;2.00;;;;;;;14.34;100.00;99111.41;5092494;28;20151;-62
2023/10/19 03:49:22;;;;;;;7.03;2.08;;;;;;;14.34;100.00;99114.91;5092696;28;20040;-62
2023/10/19 03:52:02;;;;;;;4.97;2.00;;;;;;;14.33;100.00;99115.84;5092437;28;20157;-61
2023/10/19 03:54:28;;;;;;;3.63;1.95;;;;;;;14.33;100.00;99114.97;5092625;28;20035;-61
2023/10/19 03:57:01;;;;;;;5.57;2.40;;;;;;;14.33;100.00;99109.66;5092402;28;20025;-62
2023/10/19 03:59:31;;;;;;;6.75;2.28;;;;;;;14.33;100.00;99107.88;5092314;28;20028;-61
2023/10/19 04:01:56;;;;;;;4.38;2.15;;;;;;;14.34;100.00;99106.94;5092474;28;20036;-62
2023/10/19 04:04:22;;;;;;;5.47;2.15;;;;;;;14.34;100.00;99109.59;5092001;28;20048;-62
2023/10/19 04:06:47;;;;;;;4.80;2.20;;;;;;;14.35;100.00;99099.88;5092097;28;20028;-61
2023/10/19 04:09:17;;;;;;;5.30;2.25;;;;;;;14.34;100.00;99100.75;5092344;28;20024;-61
2023/10/19 04:11:49;;;;;;;4.93;2.20;;;;;;;14.31;100.00;99096.44;5090822;28;20505;-61
2023/10/19 04:14:18;;;;;;;4.97;2.58;;;;;;;14.31;100.00;99106.19;5092248;28;20539;-61
2023/10/19 04:16:44;;;;;;;6.38;2.15;;;;;;;14.28;100.00;99101.84;5092318;28;20086;-61
2023/10/19 04:19:14;;;;;;;5.50;2.10;;;;;;;14.25;100.00;99107.25;5092403;28;20439;-62
2023/10/19 04:21:43;;;;;;;5.40;2.30;;;;;;;14.20;100.00;99099.44;5092029;28;20458;-61
2023/10/19 04:24:10;;;;;;;4.43;2.20;;;;;;;14.22;100.00;99102.91;5092248;28;20107;-61
2023/10/19 04:26:37;;;;;;;7.00;2.13;;;;;;;14.21;100.00;99100.28;5095871;28;20103;-62
2023/10/19 04:29:11;;;;;;;5.63;2.40;;;;;;;14.20;100.00;99103.88;5095931;28;20039;-61
2023/10/19 04:31:54;;;;;;;6.93;2.28;;;;;;;14.18;100.00;99100.41;5095994;28;20024;-61
2023/10/19 04:34:21;;;;;;;9.88;2.28;;;;;;;14.18;100.00;99100.41;5095523;28;20028;-62
2023/10/19 04:36:50;;;;;;;6.03;2.20;;;;;;;14.19;100.00;99102.16;5095421;28;20030;-61
2023/10/19 04:39:17;;;;;;;5.15;2.10;;;;;;;14.18;100.00;99095.09;5095483;28;20051;-61
2023/10/19 04:41:44;;;;;;;6.22;2.13;;;;;;;14.17;100.00;99101.31;5095301;28;20458;-61
2023/10/19 04:44:10;;;;;;;8.95;2.30;;;;;;;14.16;100.00;99103.09;5095412;28;20024;-61
2023/10/19 04:46:36;;;;;;;4.75;2.15;;;;;;;14.17;100.00;99102.16;5095693;28;20486;-61
2023/10/19 04:49:03;;;;;;;8.10;2.40;;;;;;;14.15;100.00;99106.69;5095529;28;20032;-61
2023/10/19 04:51:29;;;;;;;8.07;2.35;;;;;;;14.15;100.00;99103.16;5095154;28;20043;-61
2023/10/19 04:53:55;;;;;;;5.75;2.45;;;;;;;14.14;100.00;99104.09;5094156;28;20026;-61
2023/10/19 04:56:21;;;;;;;8.45;2.42;;;;;;;14.10;100.00;99113.94;5094895;28;20063;-61
2023/10/19 04:58:47;;;;;;;8.23;2.42;;;;;;;14.09;100.00;99113.97;5095415;28;20020;-61
2023/10/19 05:01:13;;;;;;;7.28;2.50;;;;;;;14.08;100.00;99110.44;5095230;28;20484;-61
2023/10/19 05:03:38;;;;;;;4.22;2.20;;;;;;;14.08;100.00;99109.56;5094891;28;20075;-61
2023/10/19 05:06:04;;;;;;;7.43;2.38;;;;;;;14.09;100.00;99122.81;5093919;28;20111;-61
2023/10/19 05:08:30;;;;;;;5.70;2.65;;;;;;;14.08;100.00;99107.78;5094841;28;20488;-61
2023/10/19 05:10:56;;;;;;;12.30;2.70;;;;;;;14.07;100.00;99116.69;5093411;28;20058;-61
2023/10/19 05:13:23;;;;;;;5.47;2.30;;;;;;;14.07;100.00;99121.13;5094600;28;20028;-61
2023/10/19 05:15:49;;;;;;;8.68;2.50;;;;;;;14.05;100.00;99115.88;5094921;28;20084;-61
2023/10/19 05:18:14;;;;;;;8.82;2.38;;;;;;;14.03;100.00;99120.34;5094633;28;20024;-61
2023/10/19 05:20:40;;;;;;;6.55;2.30;;;;;;;14.00;100.00;99115.13;5094512;28;20062;-61
2023/10/19 05:23:08;;;;;;;6.85;2.50;;;;;;;14.00;100.00;99121.31;5094691;28;20028;-61
2023/10/19 05:25:36;;;;;;;12.50;2.45;;;;;;;13.99;100.00;99118.69;5094452;28;20032;-61
2023/10/19 05:28:02;;;;;;;8.27;2.30;;;;;;;14.00;100.00;99123.97;5094664;28;20032;-61
2023/10/19 05:30:27;;;;;;;7.15;2.30;;;;;;;14.00;100.00;99115.13;5094480;28;20031;-61
2023/10/19 05:32:53;;;;;;;9.98;2.40;;;;;;;13.98;100.00;99117.84;5094262;28;20161;-61
2023/10/19 05:35:26;;;;;;;7.95;2.53;;;;;;;13.97;100.00;99118.75;5093186;28;20191;-61
2023/10/19 05:37:56;;;;;;;9.52;2.53;;;;;;;13.96;100.00;99116.13;5094267;28;20043;-61
2023/10/19 05:40:23;;;;;;;9.40;2.47;;;;;;;13.96;100.00;99122.34;5094062;28;20029;-61
2023/10/19 05:42:49;;;;;;;9.38;2.67;;;;;;;13.95;100.00;99125.00;5093939;28;20039;-61
2023/10/19 05:45:17;;;;;;;11.98;2.63;;;;;;;13.94;100.00;99123.28;5094263;28;20028;-61
2023/10/19 05:47:46;;;;;;;9.38;2.80;;;;;;;13.95;100.00;99135.63;5092889;28;20024;-61
2023/10/19 05:50:14;;;;;;;7.55;2.55;;;;;;;13.94;100.00;99145.41;5092917;28;20040;-61
2023/10/19 05:52:43;;;;;;;7.60;2.50;;;;;;;13.93;100.00;99141.00;5093882;28;20395;-61
2023/10/19 05:55:12;;;;;;;5.82;2.50;;;;;;;13.95;100.00;99144.47;5094084;28;20350;-61
2023/10/19 05:57:40;;;;;;;14.77;2.65;;;;;;;13.96;100.00;99135.63;5093910;28;20032;-62
2023/10/19 06:00:08;;;;;;;12.05;2.67;;;;;;;13.95;100.00;99130.31;5093909;28;20024;-63
2023/10/19 06:02:34;;;;;;;7.65;2.38;;;;;;;13.96;100.00;99135.63;5094062;28;20107;-61
2023/10/19 06:05:01;;;;;;;9.23;2.58;;;;;;;13.98;100.00;99135.56;5093433;28;20047;-61
2023/10/19 06:07:27;;;;;;;8.30;2.45;;;;;;;13.98;100.00;99136.41;5094001;28;20402;-61
2023/10/19 06:09:53;;;;;;;6.90;2.33;;;;;;;13.97;100.00;99134.69;5093965;28;20062;-62
2023/10/19 06:12:18;;;;;;;9.55;2.33;;;;;;;13.96;100.00;99135.63;5093897;28;20454;-61
2023/10/19 06:14:44;;;;;;;8.50;2.40;;;;;;;13.96;100.00;99142.69;5093535;28;20020;-61
2023/10/19 06:17:09;;;;;;;7.75;2.47;;;;;;;13.97;100.00;99150.63;5093330;28;20119;-61
2023/10/19 06:19:35;;;;;;;9.68;2.47;;;;;;;13.95;100.00;99152.44;5093223;28;20048;-61
2023/10/19 06:22:00;;;;;;;6.32;2.45;;;;;;;13.95;100.00;99152.44;5093676;28;20056;-62
2023/10/19 06:24:26;;;;;;;8.13;2.42;;;;;;;13.95;100.00;99154.22;5093551;28;20035;-61
2023/10/19 06:26:52;;;;;;;10.55;2.72;;;;;;;13.96;100.00;99143.56;5093059;28;20107;-61
2023/10/19 06:29:18;;;;;;;9.85;2.55;;;;;;;13.97;100.00;99149.75;5093310;28;20031;-61
2023/10/19 06:31:43;;;;;;;8.85;2.22;;;;;;;13.98;100.00;99146.19;5093116;28;20032;-61
2023/10/19 06:34:10;;;;;;;8.48;2.42;;;;;;;13.97;100.00;99145.31;5093008;28;20437;-62
2023/10/19 06:36:35;;;;;;;9.00;2.40;;;;;;;13.98;100.00;99140.88;5092862;28;20028;-61
2023/10/19 06:39:05;;;;;;;9.23;2.20;;;;;;;14.01;100.00;99156.72;5093201;28;20378;-61
2023/10/19 06:41:32;;;;;;;10.95;3.10;;;;;;;14.01;100.00;99157.56;5092654;28;20424;-61
2023/10/19 06:43:58;;;;;;;10.90;2.63;;;;;;;14.02;100.00;99156.66;5092880;28;20031;-61
2023/10/19 06:46:23;;;;;;;10.02;2.65;;;;;;;13.99;100.00;99155.88;5092664;28;20036;-61
2023/10/19 06:48:50;;;;;;;11.00;2.55;;;;;;;14.03;100.00;99170.81;5092950;28;20035;-61
2023/10/19 06:51:16;;;;;;;8.57;2.55;;;;;;;14.03;100.00;99165.50;5093049;28;20058;-61
2023/10/19 06:53:42;;;;;;;10.23;2.50;;;;;;;14.07;100.00;99166.28;5092678;28;20448;-61
2023/10/19 06:56:07;;;;;;;11.05;2.30;;;;;;;14.08;100.00;99158.25;5092686;28;20131;-61
2023/10/19 06:58:33;;;;;;;10.18;2.53;;;;;;;14.10;100.00;99160.88;5092630;28;20032;-61
2023/10/19 07:01:07;;;;;;;8.43;2.58;;;;;;;14.09;100.00;99170.63;5092508;28;20028;-62
2023/10/19 07:03:33;;;;;;;10.88;2.65;;;;;;;14.09;100.00;99157.34;5092525;28;20032;-61
2023/10/19 07:05:59;;;;;;;5.90;2.30;;;;;;;14.16;100.00;99172.16;5092720;28;20432;-61
2023/10/19 07:08:26;;;;;;;7.05;2.38;;;;;;;14.16;100.00;99169.50;5092691;28;20032;-61
2023/10/19 07:10:53;;;;;;;10.82;2.60;;;;;;;14.21;100.00;99177.34;5092744;28;20032;-61
2023/10/19 07:13:20;;;;;;;10.50;2.83;;;;;;;14.22;100.00;99181.75;5092424;28;20436;-61
2023/10/19 07:15:46;;;;;;;8.00;2.40;;;;;;;14.26;100.00;99178.06;5092547;28;20028;-61
2023/10/19 07:18:12;;;;;;;10.27;2.90;;;;;;;14.32;100.00;99185.00;5092724;28;20060;-62
2023/10/19 07:20:38;;;;;;;10.02;2.47;;;;;;;14.37;100.00;99183.91;5092524;28;20052;-62
2023/10/19 07:23:26;;;;;;;10.13;2.50;;;;;;;14.38;100.00;99182.13;5092402;28;20096;-61
2023/10/19 07:25:56;;;;;;;8.23;2.88;;;;;;;14.42;100.00;99189.09;5092391;28;20074;-61
2023/10/19 07:28:26;;;;;;;9.50;3.00;;;;;;;14.42;100.00;99186.44;5092432;28;20214;-61
2023/10/19 07:30:52;;;;;;;8.75;2.80;;;;;;;14.40;100.00;99183.81;5091186;28;20488;-61
2023/10/19 07:33:19;;;;;;;12.32;2.72;;;;;;;14.43;100.00;99183.75;5092548;28;20027;-61
2023/10/19 07:35:54;;;;;;;10.70;2.88;;;;;;;14.44;100.00;99190.78;5092208;28;20060;-61
2023/10/19 07:38:22;;;;;;;12.80;2.70;;;;;;;14.43;100.00;99182.84;5092409;28;20028;-62
2023/10/19 07:40:48;;;;;;;11.38;2.92;;;;;;;14.46;100.00;99175.66;5092315;28;20013;-61
2023/10/19 07:43:13;;;;;;;13.23;2.80;;;;;;;14.46;100.00;99162.34;5092321;28;20031;-61
2023/10/19 07:45:39;;;;;;;14.85;2.72;;;;;;;14.51;100.00;99172.88;5092357;28;20028;-61
2023/10/19 07:48:10;;;;;;;9.05;2.67;;;;;;;14.51;100.00;99163.09;5092491;28;20028;-61
2023/10/19 07:50:37;;;;;;;7.82;2.35;;;;;;;14.56;100.00;99172.72;5092327;28;20040;-61
2023/10/19 07:53:04;;;;;;;10.35;2.65;;;;;;;14.58;100.00;99173.56;5092634;28;20122;-61
2023/10/19 07:55:33;;;;;;;13.07;2.72;;;;;;;14.62;100.00;99173.41;5092306;28;20032;-61
2023/10/19 07:58:06;;;;;;;9.20;2.63;;;;;;;14.67;100.00;99165.28;5092482;28;20481;-61
2023/10/19 08:00:33;;;;;;;15.20;2.95;;;;;;;14.71;100.00;99167.78;5095939;28;20073;-61
2023/10/19 08:02:59;;;;;;;6.72;2.22;;;;;;;14.73;100.00;99165.97;5096424;28;20055;-61
2023/10/19 08:05:24;;;;;;;9.63;2.67;;;;;;;14.76;100.00;99170.28;5095722;28;20240;-61
2023/10/19 08:07:49;;;;;;;10.20;2.75;;;;;;;14.79;100.00;99164.88;5096061;28;20390;-61
2023/10/19 08:10:17;;;;;;;9.13;2.45;;;;;;;14.80;100.00;99163.94;5095903;28;20032;-61
2023/10/19 08:12:47;;;;;;;10.50;2.47;;;;;;;14.81;100.00;99163.03;5096079;28;20107;-62
2023/10/19 08:15:15;;;;;;;14.88;3.00;;;;;;;14.81;100.00;99159.50;5096183;28;20071;-61
2023/10/19 08:17:47;;;;;;;12.15;3.00;;;;;;;14.83;100.00;99160.34;5096056;28;20038;-61
2023/10/19 08:20:16;;;;;;;9.95;2.63;;;;;;;14.83;100.00;99152.34;5095833;28;20024;-61
2023/10/19 08:22:48;;;;;;;10.18;2.55;;;;;;;14.84;100.00;99152.28;5095800;28;20372;-61
2023/10/19 08:25:16;;;;;;;9.27;2.60;;;;;;;14.84;100.00;99146.97;5095729;28;20111;-61
2023/10/19 08:27:49;;;;;;;12.02;2.60;;;;;;;14.90;100.00;99149.44;5095507;28;20756;-61
2023/10/19 08:30:19;;;;;;;10.32;2.78;;;;;;;14.96;100.00;99143.03;5095528;28;20039;-61
2023/10/19 08:32:47;;;;;;;8.10;2.70;;;;;;;15.03;100.00;99150.75;5096147;28;20098;-61
2023/10/19 08:35:14;;;;;;;7.70;2.55;;;;;;;15.12;100.00;99149.56;5095446;28;20029;-61
2023/10/19 08:37:39;;;;;;;14.32;2.85;;;;;;;15.19;100.00;99148.41;5095568;28;20394;-62
2023/10/19 08:40:17;;;;;;;12.25;3.17;;;;;;;15.27;100.00;99142.81;5095672;28;20036;-61
2023/10/19 08:42:45;;;;;;;8.85;2.40;;;;;;;15.34;100.00;99148.81;5095150;28;20123;-61
2023/10/19 08:45:14;;;;;;;12.57;2.90;;;;;;;15.36;100.00;99144.28;5095192;28;20035;-61
2023/10/19 08:47:56;;;;;;;15.05;3.35;;;;;;;15.37;100.00;99136.22;5095335;28;20385;-62
2023/10/19 08:50:24;;;;;;;9.80;2.47;;;;;;;15.48;100.00;99133.19;5095293;28;20058;-61
2023/10/19 08:52:53;;;;;;;10.73;2.65;;;;;;;15.69;100.00;99134.22;5095413;28;20046;-61
2023/10/19 08:55:19;;;;;;;9.73;2.53;;;;;;;15.98;100.00;99127.78;5094971;28;20027;-61
2023/10/19 08:57:48;;;;;;;9.20;2.55;;;;;;;16.41;100.00;99142.09;5095334;28;20043;-62
2023/10/19 09:00:17;;;;;;;10.43;2.50;;;;;;;16.76;100.00;99140.66;5094919;28;20027;-61
2023/10/19 09:02:43;;;;;;;10.75;2.60;;;;;;;17.09;100.00;99145.50;5073243;28;20064;-61
2023/10/19 09:05:08;;;;;;;11.98;2.50;;;;;;;17.43;100.00;99140.44;5074418;28;20055;-62
2023/10/19 09:07:34;;;;;;;9.43;2.33;;;;;;;17.84;100.00;99142.19;5075030;28;20538;-61
2023/10/19 09:10:01;;;;;;;10.63;2.78;;;;;;;18.21;100.00;99139.53;5074143;28;20055;-61
2023/10/19 09:12:26;;;;;;;8.40;2.47;;;;;;;18.53;98.93;99143.28;5074791;28;20382;-61
2023/10/19 09:14:53;;;;;;;11.13;2.67;;;;;;;18.84;97.08;99135.56;5074671;28;20028;-61
2023/10/19 09:17:29;;;;;;;11.65;2.60;;;;;;;19.07;93.56;99132.63;5074565;28;20036;-61
2023/10/19 09:19:56;;;;;;;10.63;2.70;;;;;;;19.15;91.88;99116.16;5074412;28;20025;-61
2023/10/19 09:22:24;;;;;;;12.52;2.65;;;;;;;19.29;90.70;99110.94;5074075;28;20035;-61
2023/10/19 09:24:51;;;;;;;9.27;2.70;;;;;;;19.36;89.61;99108.81;5074350;28;20067;-61
2023/10/19 09:27:20;;;;;;;9.93;2.60;;;;;;;19.02;90.37;99111.44;5074217;28;20028;-61
2023/10/19 09:29:46;;;;;;;8.98;2.22;;;;;;;18.82;92.23;99108.91;5074545;28;20058;-61
2023/10/19 09:32:15;;;;;;;8.60;2.47;;;;;;;18.69;92.55;99118.47;5074570;28;20406;-61
2023/10/19 09:34:45;;;;;;;9.70;2.63;;;;;;;18.89;92.97;99106.78;5074145;28;20036;-62
2023/10/19 09:37:11;;;;;;;9.45;2.60;;;;;;;19.19;90.90;99099.84;5074290;28;20052;-61
2023/10/19 09:39:37;;;;;;;9.63;2.78;;;;;;;19.39;90.19;99116.66;5074163;28;20036;-61
2023/10/19 09:42:06;;;;;;;11.77;2.70;;;;;;;19.38;90.47;99106.91;5073914;28;20028;-61
2023/10/19 09:44:39;;;;;;;8.13;2.30;;;;;;;19.27;89.96;99113.69;5074283;28;20028;-61
2023/10/19 09:47:12;;;;;;;15.05;2.70;;;;;;;19.20;90.46;99123.00;5073873;28;20245;-61
2023/10/19 09:49:42;;;;;;;9.75;2.65;;;;;;;19.02;90.86;99114.09;5074072;28;20082;-61
2023/10/19 09:52:09;;;;;;;10.93;2.60;;;;;;;19.02;91.15;99111.44;5074124;28;20370;-61
2023/10/19 09:54:58;;;;;;;10.98;2.70;;;;;;;18.97;91.50;99105.47;5074019;28;20021;-61
2023/10/19 09:57:48;;;;;;;10.77;2.50;;;;;;;18.86;91.13;99109.63;5035676;28;20367;-61
2023/10/19 10:00:15;;;;;;;13.20;2.72;;;;;;;18.74;91.51;99097.72;5073878;28;20021;-61
2023/10/19 10:02:45;;;;;;;11.55;2.80;;;;;;;18.58;91.82;99100.25;5072511;28;20397;-61
2023/10/19 10:05:42;;;;;;;10.90;2.63;;;;;;;18.55;93.32;99088.88;5073132;28;20068;-61
2023/10/19 10:08:20;;;;;;;11.65;2.60;;;;;;;18.57;93.24;99082.47;5073490;28;20547;-61
2023/10/19 10:10:51;;;;;;;10.05;2.85;;;;;;;18.59;92.98;99082.44;5073438;28;20109;-61
2023/10/19 10:13:30;;;;;;;12.18;2.70;;;;;;;18.48;93.15;99086.47;5073511;28;20020;-61
2023/10/19 10:15:57;;;;;;;12.63;2.45;;;;;;;18.39;93.69;99081.59;5073263;28;20044;-61
2023/10/19 10:18:29;;;;;;;11.30;2.80;;;;;;;18.42;94.33;99094.81;5073391;28;20031;-61
2023/10/19 10:21:20;;;;;;;11.90;3.00;;;;;;;18.41;94.90;99098.41;5072913;28;20047;-61
2023/10/19 10:23:52;;;;;;;11.35;2.70;;;;;;;18.38;92.97;99103.94;5073537;28;20044;-61
2023/10/19 10:26:18;;;;;;;;;;;;;;;18.39;91.94;99105.66;5073508;28;20035;-61
2023/10/19 10:28:49;;;;;;;13.77;2.60;;;;;;;18.36;92.21;99102.28;5073220;28;19908;-61
2023/10/19 10:31:21;;;;;;;10.95;2.63;;;;;;;18.31;92.85;99104.31;5073034;28;20405;-61
2023/10/19 10:33:54;;;;;;;10.13;2.40;;;;;;;18.36;94.43;99104.94;5073331;28;20029;-61
2023/10/19 10:36:21;;;;;;;9.15;2.67;;;;;;;18.32;93.39;99098.88;5073037;28;20394;-61
2023/10/19 10:38:49;;;;;;;10.50;2.83;;;;;;;18.36;93.65;99104.94;5073175;28;20028;-61
2023/10/19 10:41:27;;;;;;;9.57;2.60;;;;;;;18.38;93.59;99105.75;5072801;28;20504;-61
2023/10/19 10:43:58;;;;;;;12.77;2.85;;;;;;;18.39;93.64;99103.00;5072962;28;20039;-61
2023/10/19 10:46:25;;;;;;;11.18;2.85;;;;;;;18.37;93.38;99101.31;5072916;28;20043;-61
2023/10/19 10:48:51;;;;;;;14.30;2.83;;;;;;;18.34;92.90;99106.84;5073020;28;20028;-61
2023/10/19 10:51:20;;;;;;;11.73;2.88;;;;;;;18.40;93.08;99102.03;5072964;28;20078;-61
2023/10/19 10:53:53;;;;;;;10.13;2.72;;;;;;;18.39;93.10;99107.47;5072585;28;20032;-61
2023/10/19 10:56:21;;;;;;;9.45;3.03;;;;;;;18.46;93.53;99101.75;5072683;28;20021;-61
2023/10/19 10:58:47;;;;;;;10.35;2.90;;;;;;;18.43;94.23;99109.91;5072989;28;20029;-61
2023/10/19 11:01:13;;;;;;;10.75;2.70;;;;;;;18.42;93.72;99100.19;5072928;28;20385;-60
2023/10/19 11:03:45;;;;;;;8.98;2.92;;;;;;;18.44;93.34;99108.13;5072569;28;20461;-61
2023/10/19 11:06:11;;;;;;;11.77;3.05;;;;;;;18.26;93.30;99107.22;5072345;28;20033;-61
2023/10/19 11:08:38;;;;;;;12.43;2.90;;;;;;;18.33;95.62;99099.72;5072456;28;20024;-61
2023/10/19 11:11:10;;;;;;;9.68;3.00;;;;;;;18.35;95.45;99090.72;5072709;28;20033;-60
2023/10/19 11:13:38;;;;;;;9.38;3.10;;;;;;;18.32;94.62;99092.66;5072520;28;20044;-61
2023/10/19 11:16:05;;;;;;;7.07;2.60;;;;;;;18.34;96.00;99088.13;5072924;28;20499;-61
2023/10/19 11:18:45;;;;;;;13.40;2.90;;;;;;;18.42;96.99;99068.09;5072686;28;20085;-61
2023/10/19 11:21:11;;;;;;;10.38;2.97;;;;;;;18.50;96.31;99071.25;5072705;28;20111;-61
2023/10/19 11:23:46;;;;;;;11.75;2.85;;;;;;;18.54;95.41;99069.25;5072677;28;20053;-61
2023/10/19 11:26:14;;;;;;;14.27;3.13;;;;;;;18.66;94.80;99063.28;5072553;28;20036;-61
2023/10/19 11:28:47;;;;;;;9.90;2.70;;;;;;;18.80;94.52;99062.63;5072318;28;20035;-61
2023/10/19 11:31:15;;;;;;;14.07;3.20;;;;;;;18.88;92.97;99060.41;5072302;28;20041;-61
2023/10/19 11:33:43;;;;;;;9.80;2.70;;;;;;;18.97;92.84;99051.91;5075039;28;20048;-61
2023/10/19 11:36:08;;;;;;;12.88;2.92;;;;;;;19.02;93.34;99057.91;5076127;28;20021;-60
2023/10/19 11:38:35;;;;;;;8.95;2.78;;;;;;;18.97;91.72;99051.03;5076646;28;20077;-61
2023/10/19 11:41:01;;;;;;;10.30;2.83;;;;;;;18.85;90.98;99043.66;5076110;28;20435;-61
2023/10/19 11:43:26;;;;;;;12.85;3.05;;;;;;;18.81;91.81;99048.31;5076302;28;20027;-61